createdAt,value
2022-11-14T00:03:25.409Z,9.70
2022-11-14T00:08:48.465Z,10.63
2022-11-14T00:14:11.173Z,8.40
2022-11-14T00:19:33.334Z,9.03
2022-11-14T00:24:56.357Z,8.97
2022-11-14T00:30:17.981Z,8.47
2022-11-14T00:35:39.947Z,8.13
2022-11-14T00:41:03.317Z,9.27
2022-11-14T00:46:25.444Z,8.07
2022-11-14T00:51:47.644Z,9.00
2022-11-14T00:57:10.663Z,9.37
2022-11-14T01:02:32.489Z,9.27
2022-11-14T01:07:54.185Z,8.37
2022-11-14T01:13:19.363Z,9.27
2022-11-14T01:18:41.782Z,8.80
2022-11-14T01:24:04.911Z,8.50
2022-11-14T01:29:28.137Z,8.87
2022-11-14T01:34:50.117Z,8.43
2022-11-14T01:40:13.368Z,9.67
2022-11-14T01:45:54.568Z,9.57
2022-11-14T01:51:27.217Z,9.23
2022-11-14T01:56:54.139Z,9.93
2022-11-14T02:02:20.086Z,10.20
2022-11-14T02:07:42.798Z,10.60
2022-11-14T02:13:04.264Z,10.13
2022-11-14T02:18:28.001Z,10.23
2022-11-14T02:23:51.413Z,10.47
2022-11-14T02:29:13.238Z,10.90
2022-11-14T02:34:35.172Z,11.43
2022-11-14T02:39:58.330Z,9.80
2022-11-14T02:45:20.907Z,12.20
2022-11-14T02:50:42.961Z,11.27
2022-11-14T02:56:06.712Z,11.57
2022-11-14T03:01:28.798Z,12.80
2022-11-14T03:06:51.033Z,13.33
2022-11-14T03:12:18.020Z,12.30
2022-11-14T03:17:39.951Z,12.53
2022-11-14T03:23:01.567Z,12.43
2022-11-14T03:28:24.960Z,13.27
2022-11-14T03:33:46.810Z,13.00
2022-11-14T03:39:08.738Z,12.90
2022-11-14T03:44:31.873Z,12.07
2022-11-14T03:49:53.710Z,14.33
2022-11-14T03:55:15.261Z,14.33
2022-11-14T04:00:39.046Z,14.10
2022-11-14T04:06:00.808Z,14.57
2022-11-14T04:11:22.695Z,14.77
2022-11-14T04:16:45.375Z,15.13
2022-11-14T04:22:07.139Z,15.37
2022-11-14T04:27:28.832Z,15.43
2022-11-14T04:32:51.889Z,16.67
2022-11-14T04:38:13.631Z,16.40
2022-11-14T04:43:35.096Z,15.50
2022-11-14T04:48:57.859Z,15.63
2022-11-14T04:54:19.241Z,16.20
2022-11-14T04:59:40.774Z,15.90
2022-11-14T05:05:03.777Z,13.17
2022-11-14T05:10:25.462Z,14.33
2022-11-14T05:15:46.996Z,14.77
2022-11-14T05:21:13.714Z,15.67
2022-11-14T05:26:35.542Z,15.30
2022-11-14T05:31:57.947Z,14.63
2022-11-14T05:37:20.944Z,14.10
2022-11-14T05:42:42.932Z,14.60
2022-11-14T05:48:04.637Z,14.37
2022-11-14T05:53:28.871Z,14.93
2022-11-14T05:58:50.361Z,14.10
2022-11-14T06:04:14.399Z,13.93
2022-11-14T06:09:37.469Z,13.70
2022-11-14T06:14:58.972Z,13.70
2022-11-14T06:20:21.018Z,12.83
2022-11-14T06:25:45.808Z,12.90
2022-11-14T06:31:07.462Z,12.93
2022-11-14T06:36:31.080Z,13.30
2022-11-14T06:41:54.324Z,12.77
2022-11-14T06:47:16.059Z,11.43
2022-11-14T06:52:37.743Z,12.67
2022-11-14T06:58:01.164Z,11.40
2022-11-14T07:03:23.964Z,11.33
2022-11-14T07:08:45.341Z,11.37
2022-11-14T07:14:08.710Z,11.67
2022-11-14T07:19:30.462Z,11.33
2022-11-14T07:24:52.547Z,10.80
2022-11-14T07:30:16.704Z,10.10
2022-11-14T07:35:41.076Z,10.07
2022-11-14T07:41:04.986Z,11.40
2022-11-14T07:46:27.810Z,10.67
2022-11-14T07:51:50.093Z,10.00
2022-11-14T07:57:11.400Z,11.30
2022-11-14T08:02:34.674Z,10.47
2022-11-14T08:07:56.658Z,9.40
2022-11-14T08:13:31.503Z,9.30
2022-11-14T08:18:55.536Z,10.00
2022-11-14T08:24:17.493Z,9.70
2022-11-14T08:29:39.324Z,9.57
2022-11-14T08:35:02.790Z,9.47
2022-11-14T08:40:24.459Z,10.20
2022-11-14T08:45:45.907Z,9.70
2022-11-14T08:51:10.297Z,10.67
2022-11-14T08:56:32.076Z,10.50
2022-11-14T09:01:54.179Z,10.27
2022-11-14T09:07:17.572Z,9.37
2022-11-14T09:12:39.467Z,7.87
2022-11-14T09:18:01.276Z,8.63
2022-11-14T09:23:25.575Z,8.37
2022-11-14T09:28:47.744Z,8.37
2022-11-14T09:34:09.410Z,9.23
2022-11-14T09:39:32.491Z,8.37
2022-11-14T09:44:57.849Z,8.37
2022-11-14T09:50:26.171Z,8.20
2022-11-14T09:55:49.919Z,7.70
2022-11-14T10:01:19.136Z,7.40
2022-11-14T10:06:49.894Z,7.67
2022-11-14T10:12:19.591Z,7.47
2022-11-14T10:17:54.514Z,7.50
2022-11-14T10:23:35.588Z,7.07
2022-11-14T10:29:20.873Z,7.80
2022-11-14T10:34:50.951Z,7.10
2022-11-14T10:40:19.050Z,6.27
2022-11-14T10:45:44.816Z,5.57
2022-11-14T10:51:14.131Z,6.10
2022-11-14T10:56:35.885Z,5.80
2022-11-14T11:02:00.245Z,6.27
2022-11-14T11:07:42.725Z,6.10
2022-11-14T11:13:04.699Z,6.23
2022-11-14T11:18:31.293Z,5.67
2022-11-14T11:23:57.447Z,6.10
2022-11-14T11:29:21.208Z,7.33
2022-11-14T11:34:44.626Z,6.53
2022-11-14T11:40:15.245Z,6.83
2022-11-14T11:45:38.236Z,6.33
2022-11-14T11:51:04.034Z,7.03
2022-11-14T11:56:28.850Z,6.83
2022-11-14T12:01:54.134Z,6.57
2022-11-14T12:07:20.530Z,6.90
2022-11-14T12:13:08.062Z,6.30
2022-11-14T12:18:48.251Z,7.70
2022-11-14T12:24:47.401Z,6.50
2022-11-14T12:30:15.164Z,6.93
2022-11-14T12:35:39.476Z,6.70
2022-11-14T12:41:07.616Z,8.13
2022-11-14T12:46:29.048Z,7.67
2022-11-14T12:51:52.941Z,8.13
2022-11-14T12:57:40.555Z,8.50
2022-11-14T13:03:21.903Z,8.40
2022-11-14T13:09:04.197Z,9.50
2022-11-14T13:14:45.420Z,11.07
2022-11-14T13:20:53.307Z,11.30
2022-11-14T13:26:43.975Z,12.07
2022-11-14T13:32:11.677Z,13.30
2022-11-14T13:38:03.880Z,15.30
2022-11-14T13:43:37.658Z,15.73
2022-11-14T13:49:13.191Z,15.63
2022-11-14T13:54:35.542Z,16.50
2022-11-14T14:00:03.663Z,15.57
2022-11-14T14:05:33.971Z,16.57
2022-11-14T14:11:07.321Z,14.93
2022-11-14T14:16:37.739Z,16.20
2022-11-14T14:22:08.739Z,16.73
2022-11-14T14:27:38.786Z,16.30
2022-11-14T14:33:05.177Z,14.97
2022-11-14T14:38:30.407Z,16.23
2022-11-14T14:43:56.361Z,16.10
2022-11-14T14:49:23.368Z,18.13
2022-11-14T14:54:56.034Z,15.40
2022-11-14T15:00:21.884Z,15.77
2022-11-14T15:05:44.092Z,15.10
2022-11-14T15:11:08.366Z,15.40
2022-11-14T15:16:31.295Z,15.47
2022-11-14T15:22:04.318Z,15.87
2022-11-14T15:27:27.341Z,17.20
2022-11-14T15:32:50.821Z,17.00
2022-11-14T15:38:43.148Z,16.57
2022-11-14T15:44:05.931Z,16.80
2022-11-14T15:49:28.747Z,16.50
2022-11-14T15:54:50.191Z,15.60
2022-11-14T16:00:17.725Z,16.80
2022-11-14T16:05:39.760Z,17.30
2022-11-14T16:11:01.539Z,17.47
2022-11-14T16:16:24.211Z,17.07
2022-11-14T16:21:45.957Z,17.53
2022-11-14T16:27:08.207Z,17.43
2022-11-14T16:32:31.100Z,17.17
2022-11-14T16:37:55.600Z,17.23
2022-11-14T16:43:17.292Z,17.90
2022-11-14T16:48:40.300Z,17.67
2022-11-14T16:54:02.125Z,15.30
2022-11-14T16:59:23.791Z,15.50
2022-11-14T17:04:47.538Z,14.17
2022-11-14T17:10:10.159Z,13.90
2022-11-14T17:15:33.406Z,15.00
2022-11-14T17:20:56.646Z,12.70
2022-11-14T17:26:18.577Z,12.73
2022-11-14T17:31:45.781Z,12.97
2022-11-14T17:37:10.309Z,13.33
2022-11-14T17:42:32.036Z,12.27
2022-11-14T17:47:53.933Z,12.33
2022-11-14T17:53:16.825Z,11.30
2022-11-14T17:58:38.590Z,10.53
2022-11-14T18:04:04.676Z,11.07
2022-11-14T18:09:29.555Z,10.63
2022-11-14T18:14:51.304Z,11.33
2022-11-14T18:20:13.189Z,10.83
2022-11-14T18:25:36.506Z,10.63
2022-11-14T18:30:58.029Z,10.97
2022-11-14T18:36:20.997Z,11.57
2022-11-14T18:41:44.270Z,9.93
2022-11-14T18:47:06.345Z,12.90
2022-11-14T18:52:28.197Z,14.20
2022-11-14T18:57:51.558Z,11.63
2022-11-14T19:03:14.453Z,11.73
2022-11-14T19:08:36.419Z,11.33
2022-11-14T19:14:03.434Z,12.60
2022-11-14T19:19:25.614Z,12.50
2022-11-14T19:24:47.614Z,14.80
2022-11-14T19:30:11.868Z,16.00
2022-11-14T19:35:33.348Z,15.10
2022-11-14T19:40:55.281Z,14.20
2022-11-14T19:46:19.379Z,14.57
2022-11-14T19:51:40.818Z,14.20
2022-11-14T19:57:03.243Z,14.47
2022-11-14T20:02:28.784Z,15.10
2022-11-14T20:07:50.542Z,16.50
2022-11-14T20:13:11.906Z,15.00
2022-11-14T20:18:35.082Z,16.03
2022-11-14T20:23:56.842Z,15.77
2022-11-14T20:29:18.891Z,15.33
2022-11-14T20:34:41.921Z,15.43
2022-11-14T20:40:03.296Z,14.67
2022-11-14T20:45:26.635Z,15.40
2022-11-14T20:50:50.052Z,16.37
2022-11-14T20:56:13.678Z,15.30
2022-11-14T21:01:40.384Z,16.07
2022-11-14T21:07:06.321Z,15.83
2022-11-14T21:12:27.920Z,15.73
2022-11-14T21:17:49.678Z,16.13
2022-11-14T21:23:12.648Z,17.03
2022-11-14T21:28:37.871Z,17.33
2022-11-14T21:34:01.139Z,16.67
2022-11-14T21:39:24.738Z,16.20
2022-11-14T21:44:46.854Z,17.93
2022-11-14T21:50:09.231Z,17.13
2022-11-14T21:55:34.410Z,17.77
2022-11-14T22:00:56.199Z,17.03
2022-11-14T22:06:18.126Z,17.90
2022-11-14T22:11:41.495Z,18.50
2022-11-14T22:17:03.373Z,18.27
2022-11-14T22:22:25.041Z,18.93
2022-11-14T22:27:48.408Z,19.23
2022-11-14T22:33:10.542Z,20.60
2022-11-14T22:38:32.526Z,19.67
2022-11-14T22:43:56.990Z,18.17
2022-11-14T22:49:21.179Z,17.70
2022-11-14T22:54:43.334Z,16.83
2022-11-14T23:00:08.958Z,15.57
2022-11-14T23:05:30.949Z,15.10
2022-11-14T23:10:52.888Z,15.00
2022-11-14T23:16:18.872Z,14.23
2022-11-14T23:21:40.754Z,14.10
2022-11-14T23:27:02.514Z,15.87
2022-11-14T23:32:25.248Z,17.40
2022-11-14T23:37:46.845Z,18.27
2022-11-14T23:43:08.804Z,18.00
2022-11-14T23:48:31.985Z,16.83
2022-11-14T23:53:53.946Z,18.57
2022-11-14T23:59:15.709Z,17.43
